Time;durP1;ratioP1;P1;durP2;ratioP2;P2;SDS_P1;SDS_P2;PMS_P1;PMS_P2;Temp;Humidity;BMP_temperature;BMP_pressure;BME280_temperature;BME280_humidity;BME280_pressure;Samples;Min_cycle;Max_cycle;Signal;HPM_P1;HPM_P2
2023/03/24 00:00:20;;;;;;;4.00;1.73;;;13.00;99.90;;;12.62;100.00;96367.63;5046506;28;20028;-52
2023/03/24 00:02:47;;;;;;;2.28;1.65;;;13.00;99.90;;;12.55;100.00;96367.13;5044424;28;20032;-53
2023/03/24 00:05:17;;;;;;;6.28;1.80;;;12.90;99.90;;;12.48;100.00;96373.75;5042815;28;20396;-52
2023/03/24 00:07:43;;;;;;;2.15;1.67;;;12.90;99.90;;;12.45;100.00;96369.47;5044816;28;20733;-52
2023/03/24 00:10:17;;;;;;;4.55;1.80;;;12.80;99.90;;;12.40;100.00;96363.63;5040947;28;20265;-52
2023/03/24 00:12:44;;;;;;;2.85;1.83;;;12.70;99.90;;;12.35;100.00;96360.41;5040145;28;20716;-53
2023/03/24 00:15:14;;;;;;;2.92;2.03;;;12.70;99.90;;;12.30;100.00;96363.31;5041414;28;20069;-53
2023/03/24 00:17:40;;;;;;;3.63;1.90;;;12.60;99.90;;;12.24;100.00;96361.06;5042696;28;20056;-51
2023/03/24 00:20:12;;;;;;;2.50;1.80;;;12.60;99.90;;;12.19;100.00;96347.28;5043018;28;20041;-52
2023/03/24 00:22:41;;;;;;;2.35;1.77;;;12.50;99.90;;;12.21;100.00;96361.25;5039122;28;20028;-51
2023/03/24 00:25:09;;;;;;;3.10;1.90;;;12.50;99.90;;;12.16;100.00;96358.03;5037261;28;20033;-53
2023/03/24 00:27:35;;;;;;;2.63;1.73;;;12.50;99.90;;;12.17;100.00;96349.16;5036067;28;20089;-52
2023/03/24 00:30:08;;;;;;;4.22;2.35;;;12.50;99.90;;;12.21;100.00;96342.75;5039487;28;20141;-52
2023/03/24 00:32:35;;;;;;;;;;;12.50;99.90;;;12.19;100.00;96336.69;5042073;28;20028;-52
2023/03/24 00:35:02;;;;;;;2.35;1.80;;;12.50;99.90;;;12.19;100.00;96339.34;5030937;28;19962;-53
2023/03/24 00:37:28;;;;;;;2.97;1.70;;;12.50;99.90;;;12.21;100.00;96332.16;5036726;28;20032;-51
2023/03/24 00:39:54;;;;;;;2.45;1.90;;;12.50;99.90;;;12.20;100.00;96327.81;5036560;28;20488;-51
2023/03/24 00:42:21;;;;;;;3.25;1.92;;;12.50;99.90;;;12.19;100.00;96312.91;5043106;28;20032;-52
2023/03/24 00:44:46;;;;;;;3.42;1.63;;;12.50;99.90;;;12.18;100.00;96319.13;5043409;28;20021;-52
2023/03/24 00:47:12;;;;;;;4.60;2.13;;;12.50;99.90;;;12.16;100.00;96328.94;5045445;28;20395;-50
2023/03/24 00:49:40;;;;;;;3.70;2.00;;;12.50;99.90;;;12.21;100.00;96313.66;5044830;28;20090;-50
2023/03/24 00:52:19;;;;;;;3.70;1.98;;;12.50;99.90;;;12.23;100.00;96317.06;5039555;28;20040;-52
2023/03/24 00:54:47;;;;;;;3.65;1.90;;;12.50;99.90;;;12.22;100.00;96310.06;5042509;28;20404;-51
2023/03/24 00:57:21;;;;;;;3.78;1.90;;;12.50;99.90;;;12.18;100.00;96308.56;5043302;28;20484;-53
2023/03/24 00:59:48;;;;;;;3.58;1.90;;;12.50;99.90;;;12.12;100.00;96299.22;5044791;28;20032;-52
2023/03/24 01:02:23;;;;;;;3.65;2.10;;;12.50;99.90;;;12.04;100.00;96285.59;5051695;28;20051;-51
2023/03/24 01:04:57;;;;;;;3.42;2.17;;;12.40;99.90;;;12.08;100.00;96288.91;5042883;28;20029;-51
2023/03/24 01:07:25;;;;;;;4.85;2.03;;;12.40;99.90;;;12.07;100.00;96279.31;5039137;28;20040;-51
2023/03/24 01:09:56;;;;;;;3.42;1.75;;;12.40;99.90;;;12.08;100.00;96273.94;5046859;28;20036;-52
2023/03/24 01:12:24;;;;;;;2.85;1.85;;;12.40;99.90;;;12.11;100.00;96275.50;5054050;28;20491;-51
2023/03/24 01:14:51;;;;;;;4.78;1.95;;;12.40;99.90;;;12.13;100.00;96270.97;5048883;28;20025;-53
2023/03/24 01:17:18;;;;;;;2.35;1.80;;;12.40;99.90;;;12.00;100.00;96252.38;5041614;28;20040;-52
2023/03/24 01:19:44;;;;;;;3.25;1.67;;;12.40;99.90;;;12.08;100.00;96265.13;5049093;28;20025;-53
2023/03/24 01:22:10;;;;;;;3.30;2.05;;;12.40;99.90;;;12.03;100.00;96260.97;5049863;28;20043;-52
2023/03/24 01:24:35;;;;;;;2.47;1.50;;;12.40;99.90;;;12.05;100.00;96250.31;5050493;28;20029;-51
2023/03/24 01:27:01;;;;;;;2.35;1.67;;;12.40;99.90;;;12.01;100.00;96252.31;5048772;28;20138;-51
2023/03/24 01:29:27;;;;;;;2.80;1.73;;;12.30;99.90;;;11.93;100.00;96256.34;5054226;28;20169;-50
2023/03/24 01:31:53;;;;;;;2.92;1.63;;;12.30;99.90;;;11.89;100.00;96247.72;5059330;28;20035;-50
2023/03/24 01:34:19;;;;;;;2.50;1.80;;;12.20;99.90;;;11.90;100.00;96248.56;5054957;28;20028;-51
2023/03/24 01:36:44;;;;;;;2.63;1.80;;;12.20;99.90;;;11.87;100.00;96246.13;5049157;28;20124;-51
2023/03/24 01:39:10;;;;;;;2.20;1.67;;;12.20;99.90;;;11.90;100.00;96246.84;5052172;28;20492;-48
2023/03/24 01:41:38;;;;;;;2.92;1.80;;;12.20;99.90;;;11.98;100.00;96238.44;5051812;28;20028;-52
2023/03/24 01:44:28;;;;;;;2.70;1.75;;;12.30;99.90;;;12.06;100.00;96243.22;5048998;28;20143;-50
2023/03/24 01:46:56;;;;;;;2.38;1.60;;;12.40;99.90;;;12.10;100.00;96245.59;5049945;28;21948;-51
2023/03/24 01:49:26;;;;;;;4.00;1.75;;;12.40;99.90;;;12.12;100.00;96233.16;5053284;28;20024;-53
2023/03/24 01:51:59;;;;;;;2.72;1.95;;;12.50;99.90;;;12.11;100.00;96236.72;5050026;28;20480;-52
2023/03/24 01:54:43;;;;;;;3.85;1.70;;;12.40;99.90;;;12.09;100.00;96227.19;5044462;28;20777;-51
2023/03/24 01:57:24;;;;;;;2.72;1.63;;;12.40;99.90;;;12.06;100.00;96227.38;5044510;28;20075;-51
2023/03/24 01:59:54;;;;;;;1.88;1.48;;;12.40;99.90;;;12.09;100.00;96222.75;5041646;28;20046;-51
2023/03/24 02:02:20;;;;;;;3.35;1.98;;;12.40;99.90;;;12.07;100.00;96216.72;5040422;28;20044;-52
2023/03/24 02:04:58;;;;;;;2.78;1.70;;;12.40;99.90;;;12.09;100.00;96221.91;5044460;28;20029;-53
2023/03/24 02:07:45;;;;;;;3.42;1.65;;;12.40;99.90;;;12.06;100.00;96217.69;5055634;22;20048;-40
2023/03/24 02:10:15;;;;;;;1.70;1.40;;;12.40;99.90;;;11.99;100.00;96214.56;5032891;28;20040;-40
2023/03/24 02:12:43;;;;;;;2.63;1.80;;;12.30;99.90;;;11.97;100.00;96219.09;5028576;28;20029;-40
2023/03/24 02:15:12;;;;;;;5.10;1.70;;;12.30;99.90;;;11.97;100.00;96221.72;5026606;28;20029;-41
2023/03/24 02:18:08;;;;;;;3.13;1.77;;;12.30;99.90;;;12.06;100.00;96227.38;5023213;28;20304;-40
2023/03/24 02:21:32;;;;;;;2.72;1.67;;;12.40;99.90;;;12.19;100.00;96220.41;5028238;28;20033;-40
2023/03/24 02:24:35;;;;;;;2.25;1.45;;;12.50;99.90;;;12.34;100.00;96221.22;5025603;28;20035;-40
2023/03/24 02:27:13;;;;;;;2.95;1.40;;;12.60;99.90;;;12.39;100.00;96221.81;5023074;28;20043;-40
2023/03/24 02:29:47;;;;;;;3.00;1.70;;;12.70;99.90;;;12.38;100.00;96222.72;5028589;28;20032;-40
2023/03/24 02:32:32;;;;;;;2.75;1.40;;;12.60;99.90;;;12.39;99.54;96220.00;5025770;28;20036;-40
2023/03/24 02:35:28;;;;;;;2.38;1.50;;;12.70;99.90;;;12.35;99.07;96215.84;5028861;28;20567;-40
2023/03/24 02:38:26;;;;;;;2.50;1.50;;;12.60;99.90;;;12.35;99.62;96215.84;5027504;28;20509;-40
2023/03/24 02:41:22;;;;;;;2.33;1.75;;;12.60;99.90;;;12.37;98.63;96213.13;5032763;28;20066;-41
2023/03/24 02:44:05;;;;;;;2.70;1.38;;;12.60;99.90;;;12.39;97.99;96221.81;5029058;28;20070;-40
2023/03/24 02:46:44;;;;;;;;;;;12.60;99.90;;;12.39;96.27;96211.22;5031760;28;20037;-41
2023/03/24 02:49:35;;;;;;;4.07;1.63;;;12.70;99.90;;;12.45;97.54;96210.81;5031240;28;20259;-40
2023/03/24 02:52:14;;;;;;;2.53;1.60;;;12.70;99.90;;;12.49;95.34;96216.78;5029222;28;20021;-40
2023/03/24 02:54:47;;;;;;;2.42;1.50;;;12.70;99.90;;;12.52;95.91;96201.56;5027857;28;20025;-40
2023/03/24 02:57:39;;;;;;;2.20;1.60;;;12.80;99.90;;;12.56;95.93;96202.22;5027399;28;20029;-40
2023/03/24 03:00:38;;;;;;;5.13;1.50;;;12.80;99.90;;;12.60;95.32;96204.56;5024364;28;20037;-40
2023/03/24 03:03:15;;;;;;;1.67;1.10;;;12.90;99.90;;;12.70;93.64;96198.69;5039092;28;20041;-40
2023/03/24 03:05:50;;;;;;;4.38;1.70;;;12.90;99.90;;;12.76;93.15;96200.94;5024532;28;20079;-40
2023/03/24 03:08:20;;;;;;;2.13;1.20;;;13.10;99.90;;;12.81;92.74;96190.91;5037132;28;20041;-40
2023/03/24 03:10:49;;;;;;;2.70;1.55;;;13.10;99.90;;;12.70;93.30;96166.94;5025435;28;20032;-40
2023/03/24 03:13:35;;;;;;;1.75;1.38;;;13.10;99.90;;;12.90;92.93;96189.44;5023073;28;20032;-40
2023/03/24 03:16:09;;;;;;;1.73;1.40;;;13.20;99.90;;;12.91;91.58;96197.28;5019780;28;20032;-40
2023/03/24 03:18:49;;;;;;;1.90;1.50;;;13.20;99.90;;;12.90;92.43;96197.38;5024317;28;20087;-40
2023/03/24 03:21:18;;;;;;;3.10;1.40;;;13.20;99.90;;;12.88;93.60;96184.25;5020593;28;20063;-40
2023/03/24 03:23:55;;;;;;;2.08;1.30;;;13.20;99.90;;;12.90;92.17;96170.94;5025959;28;20490;-40
2023/03/24 03:26:25;;;;;;;2.22;1.20;;;13.20;99.90;;;12.89;93.34;96183.31;5024692;28;20029;-40
2023/03/24 03:28:56;;;;;;;2.95;1.40;;;13.20;99.90;;;12.90;92.10;96186.81;5018794;28;20036;-40
2023/03/24 03:31:33;;;;;;;3.58;1.42;;;13.20;99.90;;;12.93;92.56;96178.66;5022549;28;20374;-40
2023/03/24 03:34:15;;;;;;;2.95;1.48;;;13.30;99.90;;;12.94;92.48;96172.44;5037078;28;20025;-40
2023/03/24 03:36:58;;;;;;;1.40;1.25;;;13.30;99.90;;;12.98;91.24;96176.56;5027809;28;20047;-40
2023/03/24 03:39:49;;;;;;;2.25;1.50;;;13.30;99.90;;;12.98;90.00;96174.75;5025880;28;20087;-40
2023/03/24 03:42:15;;;;;;;1.75;1.30;;;13.30;99.90;;;12.99;90.15;96181.78;5023286;28;20037;-40
2023/03/24 03:44:41;;;;;;;1.42;1.17;;;13.30;99.90;;;12.93;90.04;96173.38;5025595;28;20083;-40
2023/03/24 03:47:06;;;;;;;3.40;1.50;;;13.20;99.90;;;12.97;89.49;96182.81;5027358;28;20412;-40
2023/03/24 03:49:32;;;;;;;2.30;1.40;;;13.20;99.90;;;13.02;87.54;96177.22;5025104;28;20044;-40
2023/03/24 03:51:58;;;;;;;3.60;1.55;;;13.20;99.90;;;13.05;88.04;96180.50;5029274;28;20471;-40
2023/03/24 03:54:26;;;;;;;3.75;1.60;;;13.30;99.90;;;12.89;87.30;96156.00;5026268;28;20052;-40
2023/03/24 03:56:52;;;;;;;2.00;1.50;;;13.30;99.90;;;13.01;88.49;96179.03;5022314;28;20325;-40
2023/03/24 03:59:29;;;;;;;2.47;1.42;;;13.30;99.90;;;13.02;88.03;96179.88;5026756;28;20025;-40
2023/03/24 04:01:55;;;;;;;1.67;1.27;;;13.30;99.90;;;13.05;86.24;96185.81;5020376;28;20037;-40
2023/03/24 04:04:55;;;;;;;4.57;1.88;;;13.30;99.90;;;13.11;84.45;96173.97;5026675;28;21292;-40
2023/03/24 04:08:07;;;;;;;3.88;1.80;;;13.30;99.90;;;13.13;82.49;96178.19;5025577;28;20032;-40
2023/03/24 04:10:41;;;;;;;2.80;1.60;;;13.40;99.90;;;13.17;82.90;96181.47;5012528;28;20045;-40
2023/03/24 04:13:57;;;;;;;3.00;1.40;;;13.40;99.90;;;13.25;82.47;96180.97;5025930;28;20028;-40
2023/03/24 04:17:00;;;;;;;1.77;1.30;;;13.50;99.90;;;13.24;82.84;96192.50;5025825;28;20033;-40
2023/03/24 04:19:56;;;;;;;2.22;1.20;;;13.50;99.90;;;13.26;80.42;96180.00;5025481;28;20035;-40
2023/03/24 04:23:02;;;;;;;2.42;1.60;;;13.60;99.90;;;13.31;81.28;96189.38;5025241;28;20519;-40
2023/03/24 04:25:48;;;;;;;1.90;1.42;;;13.60;99.90;;;13.33;80.26;96192.78;5022345;28;20028;-40
2023/03/24 04:28:25;;;;;;;2.28;1.45;;;13.60;99.90;;;13.34;82.06;96172.44;5036149;28;20032;-40
2023/03/24 04:31:13;;;;;;;3.17;1.55;;;13.60;99.90;;;13.29;81.11;96174.53;5029558;28;20032;-40
2023/03/24 04:34:11;;;;;;;2.10;1.40;;;13.60;99.90;;;13.29;82.02;96169.22;5020079;28;20635;-40
2023/03/24 04:36:49;;;;;;;2.08;1.23;;;13.60;99.90;;;13.27;80.87;96166.69;5020490;28;20090;-40
2023/03/24 04:39:26;;;;;;;1.80;1.45;;;13.60;99.90;;;13.30;80.69;96160.34;5020883;28;20037;-45
2023/03/24 04:41:56;;;;;;;1.52;1.20;;;13.60;99.90;;;13.35;82.32;96168.84;5016206;28;20044;-40
2023/03/24 04:44:22;;;;;;;2.33;1.30;;;13.60;99.90;;;13.23;82.24;96148.47;5013689;28;20029;-40
2023/03/24 04:46:51;;;;;;;3.13;1.30;;;13.70;99.90;;;13.43;83.21;96182.41;5016117;28;20117;-40
2023/03/24 04:49:18;;;;;;;3.40;1.40;;;13.70;99.90;;;13.47;81.86;96172.47;5026757;28;20052;-40
2023/03/24 04:51:44;;;;;;;3.70;1.90;;;13.80;99.90;;;13.49;82.94;96174.03;5024835;28;20112;-40
2023/03/24 04:54:10;;;;;;;2.13;1.40;;;13.80;99.90;;;13.51;82.37;96185.41;5020372;28;20094;-40
2023/03/24 04:56:42;;;;;;;2.75;1.40;;;13.80;99.90;;;13.57;82.41;96186.78;5015855;28;20122;-40
2023/03/24 04:59:08;;;;;;;2.58;1.33;;;13.80;99.90;;;13.62;81.95;96195.28;5022433;28;20036;-40
2023/03/24 05:01:36;;;;;;;3.28;1.40;;;13.90;99.90;;;13.63;82.93;96204.88;5017062;28;20033;-40
2023/03/24 05:04:03;;;;;;;2.28;1.45;;;13.90;99.90;;;13.65;83.17;96207.44;5021708;28;20036;-40
2023/03/24 05:06:29;;;;;;;2.17;1.58;;;13.90;99.90;;;13.62;84.40;96224.41;5020148;28;20025;-41
2023/03/24 05:08:57;;;;;;;2.90;1.52;;;13.90;99.90;;;13.65;84.56;96218.03;5026430;28;20040;-40
2023/03/24 05:11:26;;;;;;;1.85;1.25;;;13.90;99.90;;;13.74;84.88;96244.72;5019224;28;20052;-40
2023/03/24 05:13:52;;;;;;;7.03;1.60;;;14.00;99.90;;;13.75;85.71;96246.44;5020489;28;20064;-40
2023/03/24 05:16:18;;;;;;;2.08;1.55;;;14.00;99.90;;;13.71;86.69;96249.41;5023228;28;20041;-40
2023/03/24 05:18:44;;;;;;;2.35;1.60;;;14.00;99.90;;;13.68;87.54;96260.22;5021700;28;20090;-40
2023/03/24 05:21:11;;;;;;;2.20;1.30;;;14.00;99.90;;;13.68;88.44;96263.72;5022182;28;20409;-40
2023/03/24 05:23:37;;;;;;;1.45;1.30;;;13.90;99.90;;;13.71;91.39;96273.25;5022450;28;20021;-40
2023/03/24 05:26:04;;;;;;;1.75;1.30;;;13.90;99.90;;;13.68;94.76;96278.78;5025763;28;20044;-40
2023/03/24 05:28:30;;;;;;;2.08;1.42;;;13.90;99.90;;;13.58;99.34;96297.06;5023120;28;20041;-40
2023/03/24 05:30:55;;;;;;;4.82;2.08;;;13.90;99.90;;;13.44;100.00;96292.69;5026832;28;20031;-40
2023/03/24 05:33:21;;;;;;;2.92;1.60;;;13.80;99.90;;;13.11;100.00;96275.38;5024634;28;20374;-40
2023/03/24 05:35:47;;;;;;;1.60;1.40;;;13.60;99.90;;;13.11;100.00;96295.72;5020667;28;20428;-40
2023/03/24 05:38:13;;;;;;;2.13;1.50;;;13.50;99.90;;;13.01;100.00;96307.81;5028332;28;20380;-40
2023/03/24 05:40:38;;;;;;;2.80;1.50;;;13.40;99.90;;;12.91;100.00;96313.72;5021625;28;20116;-40
2023/03/24 05:43:06;;;;;;;3.63;1.63;;;13.30;99.90;;;12.77;100.00;96300.50;5026976;28;20041;-40
2023/03/24 05:45:33;;;;;;;3.10;1.92;;;13.10;99.90;;;12.66;100.00;96311.78;5017455;28;20128;-40
2023/03/24 05:47:58;;;;;;;4.38;1.83;;;13.00;99.90;;;12.54;100.00;96299.31;5028163;28;20056;-40
2023/03/24 05:50:24;;;;;;;1.95;1.42;;;12.90;99.90;;;12.52;100.00;96311.78;5013074;28;20401;-40
2023/03/24 05:52:51;;;;;;;2.28;1.50;;;12.90;99.90;;;12.48;100.00;96316.41;5027934;28;20056;-40
2023/03/24 05:55:18;;;;;;;3.45;2.00;;;12.80;99.90;;;12.45;100.00;96311.31;5028239;28;20053;-40
2023/03/24 05:57:44;;;;;;;6.13;1.67;;;12.80;99.90;;;12.40;100.00;96313.41;5019103;28;20610;-40
2023/03/24 06:00:15;;;;;;;1.70;1.38;;;12.80;99.90;;;12.28;100.00;96309.72;5024588;28;20044;-40
2023/03/24 06:02:43;;;;;;;3.13;1.52;;;12.70;99.90;;;12.14;100.00;96293.84;5029818;28;20072;-40
2023/03/24 06:05:09;;;;;;;2.72;1.75;;;12.60;99.90;;;12.24;100.00;96316.13;5021398;28;20499;-40
2023/03/24 06:07:37;;;;;;;2.38;1.55;;;12.60;99.90;;;12.17;100.00;96309.53;5006177;28;20102;-40
2023/03/24 06:10:04;;;;;;;2.63;1.77;;;12.50;99.90;;;12.15;100.00;96308.75;5019807;28;20052;-40
2023/03/24 06:12:30;;;;;;;1.40;1.25;;;12.50;99.90;;;12.15;100.00;96311.38;5010720;28;20068;-40
2023/03/24 06:14:56;;;;;;;2.08;1.70;;;12.50;99.90;;;12.03;100.00;96295.34;5023923;28;20522;-40
2023/03/24 06:17:23;;;;;;;2.65;1.80;;;12.40;99.90;;;12.13;100.00;96313.28;5025480;28;20281;-40
2023/03/24 06:19:50;;;;;;;3.05;1.67;;;12.50;99.90;;;12.14;100.00;96312.34;5024002;28;20120;-40
2023/03/24 06:22:19;;;;;;;2.95;1.70;;;12.40;99.90;;;12.13;100.00;96310.63;5030938;28;20033;-40
2023/03/24 06:24:46;;;;;;;3.10;1.85;;;12.50;99.90;;;12.14;100.00;96313.19;5028273;28;20028;-40
2023/03/24 06:27:13;;;;;;;3.83;1.50;;;12.40;99.90;;;12.12;100.00;96307.16;5030215;28;20400;-40
2023/03/24 06:29:42;;;;;;;2.10;1.70;;;12.50;99.90;;;12.07;100.00;96300.44;5025355;28;20029;-40
2023/03/24 06:32:09;;;;;;;2.38;1.70;;;12.40;99.90;;;12.12;100.00;96304.50;5029347;28;20033;-40
2023/03/24 06:34:37;;;;;;;1.88;1.58;;;12.40;99.90;;;12.12;100.00;96307.16;5025048;28;20761;-40
2023/03/24 06:37:04;;;;;;;2.53;1.75;;;12.40;99.90;;;12.16;100.00;96306.00;5025140;28;20722;-40
2023/03/24 06:39:30;;;;;;;2.72;1.73;;;12.50;99.90;;;12.19;100.00;96305.81;5025960;28;20033;-40
2023/03/24 06:41:55;;;;;;;3.65;1.98;;;12.50;99.90;;;12.28;100.00;96308.88;5021465;28;20043;-40
2023/03/24 06:44:21;;;;;;;3.08;1.83;;;12.60;99.90;;;12.32;100.00;96313.00;5026388;28;20044;-39
2023/03/24 06:46:47;;;;;;;3.53;2.22;;;12.70;99.90;;;12.37;100.00;96313.59;5031045;28;20037;-38
2023/03/24 06:49:12;;;;;;;2.63;1.75;;;12.70;99.90;;;12.43;100.00;96318.47;5031548;28;20110;-39
2023/03/24 06:51:38;;;;;;;3.85;2.45;;;12.80;99.90;;;12.47;100.00;96321.78;5030310;28;20448;-39
2023/03/24 06:54:04;;;;;;;4.07;2.33;;;12.80;99.90;;;12.52;100.00;96319.72;5026449;28;20553;-38
2023/03/24 06:56:30;;;;;;;3.97;2.60;;;12.80;99.90;;;12.54;100.00;96325.75;5021140;28;20112;-39
2023/03/24 06:58:56;;;;;;;3.08;1.90;;;12.90;99.90;;;12.58;100.00;96322.84;5028789;28;20669;-38
2023/03/24 07:01:23;;;;;;;3.55;2.03;;;12.90;99.90;;;12.60;100.00;96333.31;5032972;28;20051;-38
2023/03/24 07:03:48;;;;;;;4.32;2.20;;;13.00;99.90;;;12.60;100.00;96326.22;5024977;28;20077;-38
2023/03/24 07:06:14;;;;;;;4.43;2.40;;;13.00;99.90;;;12.64;100.00;96326.03;5031536;28;20370;-38
2023/03/24 07:08:40;;;;;;;4.80;1.80;;;13.00;99.90;;;12.65;100.00;96327.72;5025036;28;20075;-38
2023/03/24 07:11:08;;;;;;;2.90;2.00;;;13.00;99.90;;;12.67;100.00;96326.72;5031126;28;20033;-38
2023/03/24 07:13:34;;;;;;;3.80;1.98;;;13.00;99.90;;;12.67;100.00;96337.28;5032463;28;20476;-39
2023/03/24 07:15:59;;;;;;;3.72;2.28;;;13.00;99.90;;;12.53;100.00;96324.91;5026027;28;20029;-38
2023/03/24 07:18:25;;;;;;;3.33;2.13;;;13.00;99.90;;;12.60;100.00;96341.25;5032279;28;20033;-39
2023/03/24 07:20:51;;;;;;;3.10;1.92;;;13.00;99.90;;;12.52;100.00;96331.13;5033499;28;20032;-38
2023/03/24 07:23:16;;;;;;;2.65;2.30;;;12.90;99.90;;;12.54;100.00;96336.31;5034786;28;20116;-38
2023/03/24 07:25:43;;;;;;;4.90;2.75;;;12.90;99.90;;;12.48;100.00;96353.44;5032125;28;20465;-38
2023/03/24 07:28:09;;;;;;;5.07;2.53;;;12.80;99.90;;;12.44;100.00;96351.91;5033521;28;20033;-38
2023/03/24 07:30:35;;;;;;;2.28;1.83;;;12.80;99.90;;;12.39;100.00;96354.84;5033319;28;20037;-38
2023/03/24 07:33:03;;;;;;;5.93;2.50;;;12.70;99.90;;;12.34;100.00;96356.06;5036685;28;20037;-38
2023/03/24 07:35:28;;;;;;;6.15;2.08;;;12.70;99.90;;;12.33;100.00;96354.38;5030773;28;20112;-38
2023/03/24 07:37:58;;;;;;;4.63;2.15;;;12.60;99.90;;;12.29;100.00;96356.34;5036747;28;20047;-38
2023/03/24 07:40:24;;;;;;;5.55;2.45;;;12.60;99.90;;;12.22;100.00;96362.94;5035006;28;20040;-39
2023/03/24 07:42:50;;;;;;;4.72;2.50;;;12.60;99.90;;;12.14;100.00;96362.56;5032196;28;20028;-38
2023/03/24 07:45:16;;;;;;;5.32;2.50;;;12.50;99.90;;;12.11;100.00;96363.56;5031778;28;20033;-38
2023/03/24 07:47:45;;;;;;;4.20;2.33;;;12.50;99.90;;;12.08;100.00;96365.53;5030437;28;20068;-38
2023/03/24 07:50:13;;;;;;;4.70;2.28;;;12.40;99.90;;;12.03;100.00;96364.03;5024880;28;20071;-38
2023/03/24 07:52:41;;;;;;;4.60;2.75;;;12.40;99.90;;;11.98;100.00;96365.25;5024871;28;20032;-38
2023/03/24 07:55:10;;;;;;;3.30;2.38;;;12.40;99.90;;;11.99;100.00;96367.81;5023439;28;20039;-38
2023/03/24 07:57:39;;;;;;;4.13;2.30;;;12.40;99.90;;;12.02;100.00;96367.63;5023198;28;22667;-38
2023/03/24 08:00:14;;;;;;;5.57;2.80;;;12.40;99.90;;;12.05;100.00;96371.88;5028709;28;20037;-38
2023/03/24 08:02:40;;;;;;;4.45;2.40;;;12.40;99.90;;;12.13;100.00;96374.06;5024265;28;20033;-38
2023/03/24 08:05:09;;;;;;;6.28;2.47;;;12.50;99.90;;;12.17;100.00;96370.31;5034521;28;20491;-38
2023/03/24 08:07:35;;;;;;;4.22;2.65;;;12.50;99.90;;;12.27;100.00;96375.88;5049173;23;20037;-37
2023/03/24 08:10:02;;;;;;;5.20;2.00;;;12.60;99.90;;;12.26;100.00;96369.75;5015587;28;20029;-38
2023/03/24 08:12:27;;;;;;;4.15;2.15;;;12.60;99.90;;;12.31;100.00;96374.75;5010242;28;20498;-38
2023/03/24 08:14:53;;;;;;;3.38;2.50;;;12.60;99.90;;;12.33;100.00;96383.47;5007389;28;20053;-38
2023/03/24 08:17:19;;;;;;;5.00;2.20;;;12.70;99.90;;;12.26;100.00;96367.09;5011426;28;20112;-38
2023/03/24 08:19:46;;;;;;;3.85;2.47;;;12.70;99.90;;;12.43;100.00;96379.28;4984623;28;20100;-38
2023/03/24 08:22:12;;;;;;;4.88;2.55;;;12.70;99.90;;;12.48;100.00;96368.44;4997189;28;20061;-38
2023/03/24 08:24:37;;;;;;;4.10;2.40;;;12.80;99.90;;;12.55;100.00;96343.34;4985895;28;20042;-38
2023/03/24 08:27:06;;;;;;;3.67;2.05;;;12.90;99.90;;;12.59;100.00;96337.75;4988737;28;20034;-38
2023/03/24 08:29:35;;;;;;;6.32;2.47;;;12.90;99.90;;;12.63;100.00;96337.56;4996525;28;20033;-38
2023/03/24 08:32:01;;;;;;;3.30;2.30;;;13.00;99.90;;;12.71;100.00;96330.84;4995633;28;20029;-38
2023/03/24 08:34:27;;;;;;;4.72;2.38;;;13.10;99.90;;;12.73;100.00;96310.44;4995389;28;20096;-43
2023/03/24 08:36:53;;;;;;;5.35;2.40;;;13.20;99.90;;;12.83;100.00;96268.41;4992494;28;20298;-38
2023/03/24 08:39:19;;;;;;;5.88;2.55;;;13.20;99.90;;;12.97;100.00;96268.34;4992553;28;20138;-38
2023/03/24 08:41:45;;;;;;;7.63;2.90;;;13.30;99.90;;;12.94;100.00;96257.13;4988519;28;20037;-38
2023/03/24 08:44:12;;;;;;;4.55;2.70;;;13.40;99.90;;;12.95;100.00;96259.63;4991938;28;20057;-38
2023/03/24 08:46:39;;;;;;;3.08;2.58;;;13.40;99.90;;;13.04;100.00;96255.53;4990249;28;20036;-38
2023/03/24 08:49:05;;;;;;;4.30;2.40;;;13.50;99.90;;;13.03;100.00;96269.75;4995796;28;20029;-38
2023/03/24 08:51:31;;;;;;;3.22;2.67;;;13.50;99.90;;;13.08;100.00;96322.38;4991081;28;20041;-38
2023/03/24 08:53:57;;;;;;;7.45;2.60;;;13.50;99.90;;;13.14;100.00;96306.94;4991840;28;20703;-38
2023/03/24 08:56:24;;;;;;;3.85;2.17;;;13.50;99.90;;;13.24;100.00;96303.69;4990360;28;20104;-38
2023/03/24 08:58:52;;;;;;;4.50;2.40;;;13.60;99.90;;;13.23;100.00;96305.50;4993181;28;20038;-38
2023/03/24 09:01:21;;;;;;;2.58;2.10;;;13.70;99.90;;;13.33;100.00;96334.91;4994836;28;20021;-38
2023/03/24 09:03:47;;;;;;;3.20;2.15;;;13.80;99.90;;;13.47;100.00;96342.78;4994557;28;20033;-38
2023/03/24 09:06:14;;;;;;;5.85;2.88;;;13.90;99.90;;;13.58;100.00;96346.56;4996727;28;20033;-38
2023/03/24 09:08:40;;;;;;;2.33;1.85;;;14.00;99.90;;;13.68;100.00;96337.06;4991498;28;20033;-38
2023/03/24 09:11:13;;;;;;;3.22;1.90;;;14.10;99.90;;;13.69;100.00;96330.78;4999603;28;20036;-38
2023/03/24 09:13:39;;;;;;;2.35;1.80;;;14.10;99.90;;;13.75;100.00;96333.03;4991828;28;20410;-38
2023/03/24 09:16:05;;;;;;;4.85;1.90;;;14.20;99.90;;;13.73;100.00;96332.31;4996199;28;20102;-38
2023/03/24 09:18:31;;;;;;;2.30;1.80;;;14.20;99.90;;;13.83;100.00;96338.66;4996485;28;20318;-38
2023/03/24 09:20:57;;;;;;;3.30;1.80;;;14.30;99.90;;;13.84;100.00;96344.84;5003507;28;20371;-38
2023/03/24 09:23:23;;;;;;;3.47;1.80;;;14.30;99.90;;;14.03;100.00;96337.34;4998224;28;20030;-38
2023/03/24 09:25:50;;;;;;;1.50;1.40;;;14.40;99.90;;;14.27;100.00;96340.13;4995906;28;20034;-38
2023/03/24 09:28:16;;;;;;;3.25;1.90;;;14.70;99.90;;;14.36;100.00;96335.16;4999727;28;20058;-38
2023/03/24 09:30:43;;;;;;;5.63;2.20;;;14.90;99.90;;;14.59;100.00;96352.13;4993110;28;20137;-38
2023/03/24 09:33:08;;;;;;;2.60;1.77;;;15.00;99.90;;;14.66;100.00;96359.56;4999582;28;20375;-38
2023/03/24 09:35:34;;;;;;;3.42;1.60;;;15.20;99.90;;;14.65;100.00;96343.75;4990647;28;20382;-39
2023/03/24 09:38:00;;;;;;;2.50;1.65;;;15.20;99.90;;;14.66;100.00;96343.66;4998803;28;20406;-38
2023/03/24 09:40:30;;;;;;;2.15;1.63;;;15.10;99.90;;;14.69;100.00;96332.78;5001588;28;20104;-38
2023/03/24 09:43:30;;;;;;;2.85;1.67;;;15.20;99.90;;;14.68;100.00;96324.97;4979998;28;20034;-38
2023/03/24 09:46:00;;;;;;;3.30;1.70;;;15.20;99.90;;;14.99;100.00;96330.75;4980407;28;20482;-38
2023/03/24 09:48:42;;;;;;;2.17;1.67;;;15.40;99.90;;;15.24;100.00;96348.41;4998373;28;20511;-38
2023/03/24 09:51:28;;;;;;;2.05;1.60;;;15.60;99.90;;;15.37;100.00;96329.78;4981029;28;20076;-38
2023/03/24 09:54:21;;;;;;;1.58;1.48;;;15.80;99.90;;;15.59;100.00;96344.97;4995335;28;20570;-38
2023/03/24 09:56:47;;;;;;;3.15;1.83;;;16.00;99.90;;;15.54;100.00;96340.00;4994320;28;20075;-38
2023/03/24 09:59:36;;;;;;;2.60;1.70;;;16.00;99.90;;;15.62;100.00;96345.59;4996439;28;20029;-38
2023/03/24 10:02:18;;;;;;;2.05;1.60;;;16.10;99.90;;;15.86;100.00;96347.41;4999516;28;20029;-38
2023/03/24 10:04:44;;;;;;;5.17;2.33;;;16.20;99.90;;;15.91;100.00;96320.50;4992120;28;20501;-37
2023/03/24 10:07:37;;;;;;;2.10;1.60;;;16.30;99.90;;;15.99;100.00;96323.44;4994570;28;20032;-37
2023/03/24 10:10:21;;;;;;;2.70;1.80;;;16.50;99.90;;;16.17;100.00;96324.69;4981647;28;20504;-37
2023/03/24 10:12:49;;;;;;;6.57;1.60;;;16.60;99.90;;;16.58;100.00;96330.41;4972735;28;20138;-37
2023/03/24 10:15:28;;;;;;;2.20;1.67;;;17.00;99.90;;;16.84;100.00;96336.38;4979542;28;20080;-37
2023/03/24 10:18:26;;;;;;;2.17;1.30;;;17.30;99.90;;;16.95;100.00;96339.03;4997747;28;20061;-37
2023/03/24 10:21:01;;;;;;;3.25;1.30;;;17.50;99.90;;;16.85;100.00;96331.91;4998202;28;20299;-37
2023/03/24 10:23:55;;;;;;;1.73;1.38;;;17.30;99.90;;;16.81;100.00;96328.59;4998369;28;20026;-37
2023/03/24 10:26:58;;;;;;;2.95;1.58;;;17.30;99.90;;;17.01;99.13;96332.38;4999506;28;20045;-38
2023/03/24 10:29:32;;;;;;;;;;;17.50;99.90;;;17.03;94.90;96333.13;5000547;28;20029;-38
2023/03/24 10:32:00;;;;;;;3.45;1.33;;;17.60;99.90;;;17.10;92.11;96346.75;4988659;28;19924;-38
2023/03/24 10:34:29;;;;;;;1.50;1.30;;;17.70;99.90;;;16.92;91.59;96328.66;4997453;28;20259;-38